createdAt,value
2022-10-02T00:00:02.214Z,1.00
2022-10-02T00:02:43.957Z,1.60
2022-10-02T00:05:15.200Z,1.00
2022-10-02T00:07:53.903Z,1.10
2022-10-02T00:10:34.390Z,1.00
2022-10-02T00:13:05.929Z,1.55
2022-10-02T00:15:35.713Z,1.20
2022-10-02T00:18:12.552Z,1.30
2022-10-02T00:21:03.085Z,0.75
2022-10-02T00:23:43.154Z,1.00
2022-10-02T00:26:17.880Z,1.40
2022-10-02T00:29:16.622Z,0.60
2022-10-02T00:32:03.164Z,1.33
2022-10-02T00:34:44.820Z,0.90
2022-10-02T00:37:28.688Z,1.20
2022-10-02T00:40:29.660Z,1.17
2022-10-02T00:43:18.276Z,0.80
2022-10-02T00:46:09.939Z,0.63
2022-10-02T00:48:45.402Z,1.05
2022-10-02T00:51:44.360Z,1.42
2022-10-02T00:54:16.861Z,0.80
2022-10-02T00:56:57.087Z,0.80
2022-10-02T00:59:51.512Z,0.80
2022-10-02T01:02:24.162Z,0.70
2022-10-02T01:04:50.878Z,0.82
2022-10-02T01:07:17.435Z,0.93
2022-10-02T01:09:45.562Z,0.70
2022-10-02T01:12:12.980Z,0.82
2022-10-02T01:14:40.884Z,1.05
2022-10-02T01:17:23.657Z,0.57
2022-10-02T01:19:50.711Z,0.70
2022-10-02T01:22:43.083Z,0.63
2022-10-02T01:25:09.746Z,0.52
2022-10-02T01:27:39.394Z,0.55
2022-10-02T01:30:11.951Z,0.65
2022-10-02T01:32:44.099Z,0.73
2022-10-02T01:35:10.854Z,0.68
2022-10-02T01:37:41.110Z,0.50
2022-10-02T01:40:10.695Z,1.02
2022-10-02T01:42:38.932Z,0.73
2022-10-02T01:45:08.138Z,0.85
2022-10-02T01:48:02.813Z,0.70
2022-10-02T01:50:39.801Z,0.70
2022-10-02T01:53:20.354Z,0.90
2022-10-02T01:56:03.928Z,1.17
2022-10-02T01:58:55.369Z,0.60
2022-10-02T02:01:25.236Z,1.20
2022-10-02T02:04:14.148Z,1.65
2022-10-02T02:06:55.913Z,0.93
2022-10-02T02:09:39.872Z,0.60
2022-10-02T02:12:15.179Z,1.00
2022-10-02T02:15:00.104Z,1.00
2022-10-02T02:17:34.194Z,0.70
2022-10-02T02:20:13.743Z,1.27
2022-10-02T02:22:46.402Z,0.70
2022-10-02T02:25:17.741Z,0.55
2022-10-02T02:27:56.081Z,0.82
2022-10-02T02:30:24.068Z,0.50
2022-10-02T02:32:56.870Z,0.50
2022-10-02T02:35:27.561Z,0.70
2022-10-02T02:38:02.396Z,0.40
2022-10-02T02:40:31.379Z,0.80
2022-10-02T02:43:14.532Z,0.63
2022-10-02T02:45:49.059Z,1.05
2022-10-02T02:48:41.321Z,0.90
2022-10-02T02:51:15.198Z,0.82
2022-10-02T02:53:49.314Z,0.75
2022-10-02T02:56:19.290Z,0.73
2022-10-02T02:58:53.930Z,0.85
2022-10-02T03:01:21.000Z,0.80
2022-10-02T03:03:48.351Z,0.85
2022-10-02T03:06:20.580Z,0.50
2022-10-02T03:08:50.333Z,1.17
2022-10-02T03:11:38.842Z,0.63
2022-10-02T03:14:26.405Z,0.70
2022-10-02T03:17:23.889Z,1.20
2022-10-02T03:20:29.225Z,0.70
2022-10-02T03:23:00.021Z,0.60
2022-10-02T03:25:41.460Z,0.40
2022-10-02T03:28:50.539Z,0.77
2022-10-02T03:31:12.959Z,0.82
2022-10-02T03:33:40.993Z,0.50
2022-10-02T03:36:08.656Z,0.60
2022-10-02T03:38:35.995Z,0.70
2022-10-02T03:41:02.572Z,0.80
2022-10-02T03:43:30.645Z,0.93
2022-10-02T03:45:57.412Z,0.70
2022-10-02T03:48:24.205Z,0.50
2022-10-02T03:50:51.031Z,0.70
2022-10-02T03:53:21.111Z,0.68
2022-10-02T03:55:57.651Z,0.70
2022-10-02T03:58:25.702Z,0.95
2022-10-02T04:00:58.886Z,0.57
2022-10-02T04:03:43.788Z,0.82
2022-10-02T04:06:25.304Z,0.50
2022-10-02T04:09:01.189Z,0.77
2022-10-02T04:11:33.464Z,0.45
2022-10-02T04:14:10.080Z,0.60
2022-10-02T04:16:42.603Z,0.70
2022-10-02T04:19:17.137Z,0.98
2022-10-02T04:21:55.588Z,0.60
2022-10-02T04:24:22.119Z,0.43
2022-10-02T04:27:23.606Z,0.70
2022-10-02T04:29:58.314Z,0.40
2022-10-02T04:32:27.687Z,0.60
2022-10-02T04:34:54.548Z,1.42
2022-10-02T04:37:44.582Z,0.60
2022-10-02T04:40:29.806Z,0.73
2022-10-02T04:43:21.062Z,0.80
2022-10-02T04:46:17.098Z,0.70
2022-10-02T04:48:52.965Z,0.75
2022-10-02T04:51:41.162Z,0.60
2022-10-02T04:54:32.647Z,0.60
2022-10-02T04:57:05.517Z,0.47
2022-10-02T04:59:47.044Z,0.77
2022-10-02T05:02:35.241Z,0.47
2022-10-02T05:05:23.574Z,0.57
2022-10-02T05:08:20.383Z,0.50
2022-10-02T05:11:13.234Z,0.60
2022-10-02T05:13:45.798Z,0.50
2022-10-02T05:16:43.089Z,0.68
2022-10-02T05:19:27.813Z,0.45
2022-10-02T05:22:12.108Z,0.52
2022-10-02T05:24:57.931Z,0.57
2022-10-02T05:27:25.028Z,0.52
2022-10-02T05:29:57.416Z,0.40
2022-10-02T05:32:48.816Z,0.60
2022-10-02T05:35:24.307Z,0.20
2022-10-02T05:37:59.867Z,0.55
2022-10-02T05:43:10.988Z,0.40
2022-10-02T05:45:40.757Z,0.57
2022-10-02T05:48:18.450Z,0.60
2022-10-02T05:50:50.071Z,0.47
2022-10-02T05:53:33.834Z,0.50
2022-10-02T05:56:09.337Z,0.50
2022-10-02T06:01:17.817Z,0.60
2022-10-02T06:04:19.262Z,0.52
2022-10-02T06:06:51.681Z,0.68
2022-10-02T06:09:38.537Z,0.88
2022-10-02T06:12:14.511Z,0.60
2022-10-02T06:14:51.008Z,1.33
2022-10-02T06:17:49.661Z,0.60
2022-10-02T06:20:37.610Z,0.90
2022-10-02T06:23:16.331Z,0.68
2022-10-02T06:26:17.982Z,1.20
2022-10-02T06:28:53.076Z,1.00
2022-10-02T06:31:57.425Z,1.23
2022-10-02T06:34:24.114Z,1.17
2022-10-02T06:37:13.961Z,1.10
2022-10-02T06:39:56.777Z,0.95
2022-10-02T06:42:38.425Z,1.10
2022-10-02T06:45:23.721Z,1.42
2022-10-02T06:47:57.523Z,1.33
2022-10-02T06:50:30.381Z,1.92
2022-10-02T06:53:29.224Z,1.20
2022-10-02T06:56:26.809Z,1.13
2022-10-02T06:59:14.883Z,1.10
2022-10-02T07:01:57.620Z,1.02
2022-10-02T07:04:47.024Z,1.10
2022-10-02T07:07:13.552Z,1.08
2022-10-02T07:10:03.551Z,1.02
2022-10-02T07:13:05.434Z,1.00
2022-10-02T07:15:49.298Z,0.90
2022-10-02T07:18:21.627Z,1.00
2022-10-02T07:21:03.078Z,1.17
2022-10-02T07:24:02.630Z,0.80
2022-10-02T07:26:48.300Z,1.15
2022-10-02T07:29:32.431Z,0.77
2022-10-02T07:32:17.668Z,0.82
2022-10-02T07:35:22.156Z,0.80
2022-10-02T07:38:10.628Z,0.70
2022-10-02T07:41:16.053Z,0.60
2022-10-02T07:43:54.682Z,0.77
2022-10-02T07:46:40.069Z,0.70
2022-10-02T07:49:39.393Z,0.80
2022-10-02T07:52:28.732Z,0.80
2022-10-02T07:54:55.329Z,0.70
2022-10-02T07:57:27.627Z,0.88
2022-10-02T08:00:23.947Z,1.00
2022-10-02T08:02:59.634Z,1.17
2022-10-02T08:05:42.482Z,1.05
2022-10-02T08:08:47.718Z,0.73
2022-10-02T08:11:24.318Z,0.60
2022-10-02T08:13:57.873Z,0.75
2022-10-02T08:16:32.457Z,0.73
2022-10-02T08:19:21.708Z,0.57
2022-10-02T08:21:55.509Z,0.50
2022-10-02T08:24:29.975Z,0.80
2022-10-02T08:27:08.377Z,1.02
2022-10-02T08:29:48.972Z,0.60
2022-10-02T08:32:15.581Z,0.50
2022-10-02T08:34:43.535Z,0.70
2022-10-02T08:37:19.233Z,0.43
2022-10-02T08:40:22.982Z,0.40
2022-10-02T08:43:13.991Z,0.65
2022-10-02T08:46:14.531Z,0.35
2022-10-02T08:49:17.767Z,0.50
2022-10-02T08:52:16.283Z,0.40
2022-10-02T08:55:10.581Z,0.60
2022-10-02T08:57:54.421Z,0.50
2022-10-02T09:00:25.051Z,0.70
2022-10-02T09:02:54.375Z,0.65
2022-10-02T09:05:56.448Z,0.55
2022-10-02T09:09:07.379Z,0.60
2022-10-02T09:11:52.092Z,0.60
2022-10-02T09:14:58.811Z,0.50
2022-10-02T09:17:35.498Z,0.90
2022-10-02T09:20:05.005Z,0.70
2022-10-02T09:22:40.338Z,0.70
2022-10-02T09:25:06.941Z,0.75
2022-10-02T09:27:51.638Z,0.65
2022-10-02T09:30:33.098Z,0.50
2022-10-02T09:33:34.615Z,0.50
2022-10-02T09:36:24.826Z,0.85
2022-10-02T09:39:13.570Z,0.50
2022-10-02T09:42:00.746Z,0.50
2022-10-02T09:44:46.139Z,0.32
2022-10-02T09:47:44.096Z,0.35
2022-10-02T09:50:42.343Z,0.40
2022-10-02T09:53:36.047Z,0.52
2022-10-02T09:56:17.926Z,0.40
2022-10-02T09:59:19.009Z,0.40
2022-10-02T10:02:04.694Z,0.55
2022-10-02T10:04:54.021Z,0.45
2022-10-02T10:07:39.154Z,0.60
2022-10-02T10:10:32.533Z,0.50
2022-10-02T10:13:16.130Z,0.85
2022-10-02T10:16:22.133Z,0.60
2022-10-02T10:19:07.465Z,0.60
2022-10-02T10:22:04.352Z,0.50
2022-10-02T10:25:00.603Z,0.50
2022-10-02T10:27:49.100Z,0.55
2022-10-02T10:30:58.072Z,0.77
2022-10-02T10:33:44.055Z,0.60
2022-10-02T10:39:39.788Z,0.60
2022-10-02T10:42:27.556Z,0.30
2022-10-02T10:45:18.299Z,0.70
2022-10-02T10:48:30.037Z,0.70
2022-10-02T10:51:34.056Z,0.50
2022-10-02T10:54:33.639Z,0.60
2022-10-02T10:57:18.617Z,0.60
2022-10-02T11:00:13.492Z,0.60
2022-10-02T11:02:54.650Z,0.60
2022-10-02T11:05:49.505Z,0.52
2022-10-02T11:08:18.995Z,0.50
2022-10-02T11:11:19.734Z,0.70
2022-10-02T11:14:11.003Z,0.68
2022-10-02T11:16:44.032Z,1.05
2022-10-02T11:19:24.922Z,0.68
2022-10-02T11:22:09.832Z,0.68
2022-10-02T11:24:50.895Z,0.82
2022-10-02T11:27:45.411Z,0.55
2022-10-02T11:30:21.296Z,0.50
2022-10-02T11:33:07.205Z,0.60
2022-10-02T11:38:30.523Z,0.90
2022-10-02T11:40:59.821Z,0.80
2022-10-02T11:43:44.201Z,0.52
2022-10-02T11:46:17.122Z,0.68
2022-10-02T11:49:31.698Z,0.95
2022-10-02T11:52:19.413Z,0.70
2022-10-02T11:55:09.861Z,0.80
2022-10-02T11:57:39.407Z,0.90
2022-10-02T12:00:35.343Z,1.00
2022-10-02T12:03:21.261Z,1.15
2022-10-02T12:06:33.797Z,1.00
2022-10-02T12:09:09.511Z,0.90
2022-10-02T12:12:16.999Z,1.33
2022-10-02T12:14:49.447Z,0.85
2022-10-02T12:17:37.812Z,1.27
2022-10-02T12:20:31.224Z,0.90
2022-10-02T12:24:06.938Z,1.13
2022-10-02T12:27:00.431Z,0.90
2022-10-02T12:29:40.464Z,1.23
2022-10-02T12:32:29.220Z,0.90
2022-10-02T12:35:17.938Z,1.10
2022-10-02T12:37:53.620Z,1.38
2022-10-02T12:40:32.788Z,0.70
2022-10-02T12:43:26.820Z,0.95
2022-10-02T12:46:15.036Z,1.05
2022-10-02T12:49:14.253Z,1.08
2022-10-02T12:52:12.720Z,1.00
2022-10-02T12:54:57.962Z,1.08
2022-10-02T12:57:52.091Z,1.17
2022-10-02T13:00:20.442Z,1.00
2022-10-02T13:03:05.515Z,1.00
2022-10-02T13:05:35.280Z,1.20
2022-10-02T13:08:41.558Z,1.00
2022-10-02T13:11:35.884Z,1.05
2022-10-02T13:14:23.422Z,0.98
2022-10-02T13:17:10.081Z,3.15
2022-10-02T13:19:53.586Z,0.88
2022-10-02T13:22:26.204Z,0.93
2022-10-02T13:25:18.687Z,1.05
2022-10-02T13:28:30.285Z,1.25
2022-10-02T13:31:36.564Z,0.90
2022-10-02T13:37:00.431Z,1.05
2022-10-02T13:39:29.663Z,0.90
2022-10-02T13:42:14.749Z,0.98
2022-10-02T13:44:41.350Z,1.10
2022-10-02T13:47:34.069Z,1.45
2022-10-02T13:50:22.418Z,1.00
2022-10-02T13:53:03.402Z,0.80
2022-10-02T13:55:40.940Z,1.35
2022-10-02T13:58:35.561Z,1.23
2022-10-02T14:01:11.488Z,1.25
2022-10-02T14:04:10.859Z,0.80
2022-10-02T14:06:58.756Z,1.15
2022-10-02T14:09:47.289Z,0.98
2022-10-02T14:12:27.629Z,0.90
2022-10-02T14:15:12.313Z,0.85
2022-10-02T14:18:00.782Z,1.15
2022-10-02T14:20:32.011Z,0.80
2022-10-02T14:23:33.721Z,0.88
2022-10-02T14:26:18.807Z,1.00
2022-10-02T14:29:08.994Z,0.70
2022-10-02T14:31:36.175Z,0.90
2022-10-02T14:34:13.951Z,1.30
2022-10-02T14:36:59.036Z,0.93
2022-10-02T14:39:37.443Z,0.93
2022-10-02T14:42:22.121Z,0.95
2022-10-02T14:45:06.848Z,0.90
2022-10-02T14:47:51.787Z,1.02
2022-10-02T14:50:42.769Z,0.93
2022-10-02T14:53:28.108Z,1.38
2022-10-02T14:56:27.862Z,1.58
2022-10-02T14:59:12.003Z,1.30
2022-10-02T15:01:45.328Z,1.35
2022-10-02T15:04:22.532Z,1.63
2022-10-02T15:06:57.981Z,1.40
2022-10-02T15:09:49.505Z,2.75
2022-10-02T15:12:24.213Z,1.63
2022-10-02T15:15:16.036Z,1.67
2022-10-02T15:18:00.034Z,1.20
2022-10-02T15:20:48.661Z,1.38
2022-10-02T15:23:41.636Z,1.52
2022-10-02T15:26:25.758Z,1.52
2022-10-02T15:29:11.155Z,1.55
2022-10-02T15:32:04.845Z,1.20
2022-10-02T15:34:52.068Z,1.45
2022-10-02T15:37:18.601Z,2.33
2022-10-02T15:39:51.836Z,1.42
2022-10-02T15:42:41.882Z,1.50
2022-10-02T15:45:19.467Z,1.30
2022-10-02T15:48:04.941Z,2.08
2022-10-02T15:50:34.557Z,1.25
2022-10-02T15:53:26.104Z,1.38
2022-10-02T15:55:59.180Z,1.45
2022-10-02T15:58:58.439Z,1.33
2022-10-02T16:01:52.236Z,1.42
2022-10-02T16:04:27.582Z,1.30
2022-10-02T16:12:36.380Z,1.48
2022-10-02T16:15:32.271Z,1.83
2022-10-02T16:18:04.946Z,1.30
2022-10-02T16:21:06.370Z,1.40
2022-10-02T16:24:08.665Z,1.55
2022-10-02T16:27:00.739Z,1.33
2022-10-02T16:29:47.871Z,1.33
2022-10-02T16:32:22.113Z,1.27
2022-10-02T16:35:20.209Z,1.40
2022-10-02T16:37:59.695Z,1.40
2022-10-02T16:40:42.409Z,2.55
2022-10-02T16:43:26.986Z,2.00
2022-10-02T16:46:09.905Z,1.50
2022-10-02T16:49:19.731Z,2.08
2022-10-02T16:52:10.451Z,2.55
2022-10-02T16:54:57.401Z,2.00
2022-10-02T16:57:37.229Z,1.58
2022-10-02T17:00:23.963Z,2.15
2022-10-02T17:02:58.490Z,1.27
2022-10-02T17:05:45.727Z,1.57
2022-10-02T17:08:23.092Z,1.30
2022-10-02T17:10:53.274Z,1.73
2022-10-02T17:13:32.276Z,2.45
2022-10-02T17:16:08.073Z,2.90
2022-10-02T17:18:45.441Z,2.42
2022-10-02T17:21:24.754Z,2.58
2022-10-02T17:24:28.880Z,2.30
2022-10-02T17:27:04.260Z,1.90
2022-10-02T17:32:09.002Z,2.13
2022-10-02T17:34:47.942Z,1.80
2022-10-02T17:37:17.396Z,5.07
2022-10-02T17:40:05.695Z,2.50
2022-10-02T17:42:41.364Z,4.38
2022-10-02T17:45:42.296Z,3.35
2022-10-02T17:48:24.366Z,3.22
2022-10-02T17:50:59.964Z,3.58
2022-10-02T17:53:51.098Z,3.13
2022-10-02T17:56:41.036Z,2.75
2022-10-02T17:59:20.085Z,3.63
2022-10-02T18:01:51.314Z,7.10
2022-10-02T18:04:24.215Z,9.55
2022-10-02T18:06:53.990Z,30.50
2022-10-02T18:09:23.527Z,7.75
2022-10-02T18:12:18.541Z,3.33
2022-10-02T18:14:51.560Z,2.97
2022-10-02T18:17:27.538Z,2.15
2022-10-02T18:20:17.095Z,3.47
2022-10-02T18:23:04.863Z,4.43
2022-10-02T18:25:41.709Z,4.10
2022-10-02T18:28:17.701Z,3.50
2022-10-02T18:30:56.956Z,3.85
2022-10-02T18:33:54.087Z,3.05
2022-10-02T18:36:50.649Z,1.70
2022-10-02T18:39:19.874Z,2.03
2022-10-02T18:42:17.076Z,2.15
2022-10-02T18:45:27.144Z,2.03
2022-10-02T18:48:20.263Z,1.85
2022-10-02T18:51:12.248Z,1.58
2022-10-02T18:53:59.654Z,2.30
2022-10-02T18:57:04.247Z,2.30
2022-10-02T18:59:45.717Z,2.88
2022-10-02T19:02:49.761Z,3.33
2022-10-02T19:05:26.082Z,3.70
2022-10-02T19:08:04.871Z,4.35
2022-10-02T19:10:31.420Z,4.57
2022-10-02T19:13:01.025Z,6.50
2022-10-02T19:15:31.095Z,6.43
2022-10-02T19:18:01.047Z,5.85
2022-10-02T19:20:53.118Z,6.38
2022-10-02T19:23:34.194Z,6.70
2022-10-02T19:26:06.135Z,7.22
2022-10-02T19:28:45.417Z,5.95
2022-10-02T19:31:13.346Z,5.13
2022-10-02T19:33:49.821Z,4.35
2022-10-02T19:36:24.142Z,4.80
2022-10-02T19:39:01.316Z,4.88
2022-10-02T19:41:35.367Z,3.83
2022-10-02T19:44:07.182Z,3.80
2022-10-02T19:46:37.139Z,4.35
2022-10-02T19:49:05.083Z,4.00
2022-10-02T19:51:43.093Z,3.65
2022-10-02T19:54:16.262Z,2.88
2022-10-02T19:56:44.706Z,2.80
2022-10-02T19:59:19.622Z,2.15
2022-10-02T20:01:49.061Z,2.30
2022-10-02T20:04:20.042Z,2.30
2022-10-02T20:06:53.041Z,2.72
2022-10-02T20:09:43.867Z,2.08
2022-10-02T20:12:15.664Z,2.50
2022-10-02T20:14:54.274Z,2.55
2022-10-02T20:17:21.016Z,2.45
2022-10-02T20:20:02.006Z,3.53
2022-10-02T20:22:31.914Z,1.90
2022-10-02T20:25:18.633Z,2.42
2022-10-02T20:27:52.493Z,2.20
2022-10-02T20:30:21.813Z,2.50
2022-10-02T20:33:03.043Z,2.10
2022-10-02T20:35:51.125Z,2.05
2022-10-02T20:38:44.648Z,2.15
2022-10-02T20:41:23.653Z,2.35
2022-10-02T20:44:02.182Z,2.40
2022-10-02T20:47:00.390Z,2.38
2022-10-02T20:49:40.259Z,1.95
2022-10-02T20:52:52.447Z,2.22
2022-10-02T20:55:27.146Z,2.00
2022-10-02T20:58:01.121Z,1.92
2022-10-02T21:00:42.926Z,2.13
2022-10-02T21:03:37.159Z,2.03
2022-10-02T21:06:26.575Z,2.30
2022-10-02T21:09:22.394Z,1.88
2022-10-02T21:11:58.417Z,2.40
2022-10-02T21:14:44.626Z,2.33
2022-10-02T21:17:48.776Z,2.60
2022-10-02T21:20:49.244Z,2.17
2022-10-02T21:23:38.950Z,2.28
2022-10-02T21:26:17.596Z,2.22
2022-10-02T21:29:08.834Z,1.58
2022-10-02T21:31:41.290Z,1.50
2022-10-02T21:34:08.800Z,1.48
2022-10-02T21:36:57.424Z,1.25
2022-10-02T21:39:45.339Z,1.30
2022-10-02T21:42:42.703Z,1.20
2022-10-02T21:45:32.240Z,1.90
2022-10-02T21:48:13.887Z,0.95
2022-10-02T21:51:13.962Z,1.10
2022-10-02T21:53:58.712Z,0.85
2022-10-02T21:56:52.630Z,1.25
2022-10-02T22:00:07.950Z,0.70
2022-10-02T22:03:22.968Z,1.05
2022-10-02T22:06:15.259Z,0.90
2022-10-02T22:08:55.221Z,1.00
2022-10-02T22:11:34.600Z,1.00
2022-10-02T22:14:09.118Z,1.10
2022-10-02T22:16:42.825Z,1.05
2022-10-02T22:19:53.956Z,1.10
2022-10-02T22:22:29.292Z,1.50
2022-10-02T22:25:14.026Z,1.63
2022-10-02T22:28:05.377Z,1.27
2022-10-02T22:30:47.817Z,1.50
2022-10-02T22:33:23.340Z,1.70
2022-10-02T22:36:27.166Z,1.48
2022-10-02T22:39:05.736Z,1.60
2022-10-02T22:41:38.635Z,2.15
2022-10-02T22:44:18.847Z,1.40
2022-10-02T22:46:54.038Z,1.10
2022-10-02T22:49:37.541Z,1.42
2022-10-02T22:52:08.744Z,1.90
2022-10-02T22:54:38.092Z,1.60
2022-10-02T22:57:12.763Z,1.40
2022-10-02T22:59:46.347Z,1.23
2022-10-02T23:02:32.682Z,1.33
2022-10-02T23:05:12.274Z,1.15
2022-10-02T23:07:49.545Z,1.10
2022-10-02T23:10:25.714Z,1.17
2022-10-02T23:13:04.403Z,0.90
2022-10-02T23:15:59.355Z,1.13
2022-10-02T23:18:36.884Z,0.90
2022-10-02T23:21:29.431Z,0.85
2022-10-02T23:24:22.558Z,1.08
2022-10-02T23:26:55.465Z,1.10
2022-10-02T23:29:46.244Z,1.00
2022-10-02T23:32:31.645Z,1.55
2022-10-02T23:35:19.160Z,0.90
2022-10-02T23:38:02.022Z,0.88
2022-10-02T23:40:50.290Z,0.70
2022-10-02T23:43:38.456Z,0.93
2022-10-02T23:46:15.893Z,1.17
2022-10-02T23:48:43.004Z,1.33
2022-10-02T23:51:15.200Z,0.80
2022-10-02T23:53:53.998Z,0.93
2022-10-02T23:56:35.585Z,1.25
2022-10-02T23:59:12.527Z,0.70
